createdAt,value
2023-02-21T00:00:16.944Z,1.00
2023-02-21T00:03:23.433Z,1.00
2023-02-21T00:06:31.509Z,1.00
2023-02-21T00:09:37.964Z,1.00
2023-02-21T00:12:44.996Z,1.00
2023-02-21T00:15:52.340Z,1.00
2023-02-21T00:18:59.971Z,1.00
2023-02-21T00:22:07.971Z,1.00
2023-02-21T00:25:15.108Z,1.00
2023-02-21T00:28:22.251Z,1.00
2023-02-21T00:31:28.981Z,1.00
2023-02-21T00:34:35.825Z,1.00
2023-02-21T00:37:44.400Z,1.00
2023-02-21T00:40:51.490Z,1.00
2023-02-21T00:43:58.319Z,1.00
2023-02-21T00:47:04.741Z,1.00
2023-02-21T00:50:11.600Z,1.00
2023-02-21T00:53:19.501Z,1.00
2023-02-21T00:56:26.028Z,1.00
2023-02-21T00:59:32.294Z,1.00
2023-02-21T01:02:39.006Z,1.00
2023-02-21T01:05:45.900Z,1.00
2023-02-21T01:08:53.729Z,1.00
2023-02-21T01:12:00.474Z,1.00
2023-02-21T01:15:07.246Z,99.90
2023-02-21T01:18:13.674Z,1.00
2023-02-21T01:21:20.531Z,1.00
2023-02-21T01:24:32.033Z,1.00
2023-02-21T01:27:38.585Z,1.00
2023-02-21T01:30:45.553Z,9.70
2023-02-21T01:33:56.063Z,77.00
2023-02-21T01:37:02.744Z,99.90
2023-02-21T01:40:10.806Z,99.90
2023-02-21T01:43:17.834Z,99.90
2023-02-21T01:46:24.888Z,99.90
2023-02-21T01:49:35.684Z,99.90
2023-02-21T01:52:42.978Z,99.90
2023-02-21T01:55:52.360Z,99.90
2023-02-21T01:58:59.797Z,99.90
2023-02-21T02:02:12.400Z,99.90
2023-02-21T02:05:20.675Z,99.90
2023-02-21T02:08:27.389Z,99.90
2023-02-21T02:14:19.003Z,99.90
2023-02-21T02:17:16.691Z,99.90
2023-02-21T02:20:57.107Z,99.90
2023-02-21T02:24:13.661Z,99.90
2023-02-21T02:27:43.127Z,99.90
2023-02-21T02:31:03.038Z,99.90
2023-02-21T02:34:16.445Z,99.90
2023-02-21T02:37:14.772Z,99.90
2023-02-21T02:40:10.056Z,99.90
2023-02-21T02:43:21.957Z,99.90
2023-02-21T02:46:17.189Z,99.90
2023-02-21T02:49:11.494Z,99.90
2023-02-21T02:52:06.289Z,99.90
2023-02-21T02:55:06.990Z,99.90
2023-02-21T02:57:57.227Z,99.90
2023-02-21T03:00:54.844Z,99.90
2023-02-21T03:04:00.159Z,99.90
2023-02-21T03:06:58.548Z,99.90
2023-02-21T03:09:55.440Z,99.90
2023-02-21T03:12:54.271Z,99.90
2023-02-21T03:15:51.530Z,99.90
2023-02-21T03:18:44.812Z,99.90
2023-02-21T03:21:39.718Z,99.90
2023-02-21T03:24:30.692Z,99.90
2023-02-21T03:27:23.051Z,99.90
2023-02-21T03:30:16.094Z,99.90
2023-02-21T03:33:10.933Z,99.90
2023-02-21T03:36:02.112Z,99.90
2023-02-21T03:38:51.777Z,99.90
2023-02-21T03:41:41.489Z,99.90
2023-02-21T03:44:31.132Z,99.90
2023-02-21T03:47:22.350Z,99.90
2023-02-21T03:50:12.156Z,99.90
2023-02-21T03:53:03.279Z,99.90
2023-02-21T03:55:53.125Z,99.90
2023-02-21T03:58:42.730Z,99.90
2023-02-21T04:01:32.383Z,99.90
2023-02-21T04:04:23.498Z,99.90
2023-02-21T04:07:13.894Z,99.90
2023-02-21T04:10:03.432Z,99.90
2023-02-21T04:12:53.209Z,99.90
2023-02-21T04:15:42.851Z,84.10
2023-02-21T04:18:32.482Z,32.50
2023-02-21T04:21:23.584Z,2.10
2023-02-21T04:24:13.217Z,1.00
2023-02-21T04:27:03.210Z,1.00
2023-02-21T04:29:52.736Z,1.00
2023-02-21T04:32:42.632Z,1.00
2023-02-21T04:35:32.540Z,99.90
2023-02-21T04:38:23.653Z,99.90
2023-02-21T04:41:14.450Z,99.90
2023-02-21T04:44:04.317Z,1.00
2023-02-21T04:46:53.994Z,1.00
2023-02-21T04:49:43.894Z,57.30
2023-02-21T04:52:33.767Z,94.50
2023-02-21T04:55:25.099Z,99.90
2023-02-21T04:58:14.872Z,99.90
2023-02-21T05:01:04.624Z,99.90
2023-02-21T05:03:54.240Z,99.90
2023-02-21T05:06:44.109Z,99.90
2023-02-21T05:09:34.594Z,99.90
2023-02-21T05:12:25.681Z,99.90
2023-02-21T05:15:16.312Z,99.90
2023-02-21T05:18:05.828Z,99.90
2023-02-21T05:20:55.542Z,99.90
2023-02-21T05:23:56.271Z,99.90
2023-02-21T05:26:45.805Z,98.30
2023-02-21T05:29:36.538Z,64.90
2023-02-21T05:32:29.858Z,20.30
2023-02-21T05:35:19.302Z,1.00
2023-02-21T05:38:09.345Z,1.00
2023-02-21T05:40:58.825Z,1.00
2023-02-21T05:43:49.854Z,1.00
2023-02-21T05:46:40.758Z,1.00
2023-02-21T05:49:30.221Z,1.00
2023-02-21T05:52:19.871Z,99.90
2023-02-21T05:55:09.480Z,99.90
2023-02-21T05:57:58.777Z,99.90
2023-02-21T06:00:48.195Z,99.90
2023-02-21T06:03:39.183Z,99.90
2023-02-21T06:06:28.704Z,99.90
2023-02-21T06:09:19.796Z,16.90
2023-02-21T06:12:09.371Z,1.00
2023-02-21T06:14:59.410Z,1.00
2023-02-21T06:17:48.744Z,99.90
2023-02-21T06:20:39.650Z,99.90
2023-02-21T06:23:29.256Z,99.90
2023-02-21T06:26:19.907Z,99.90
2023-02-21T06:29:09.799Z,99.90
2023-02-21T06:31:59.817Z,1.00
2023-02-21T06:34:49.411Z,99.90
2023-02-21T06:37:40.306Z,1.00
2023-02-21T06:40:29.775Z,1.00
2023-02-21T06:43:19.157Z,1.00
2023-02-21T06:46:08.677Z,99.90
2023-02-21T06:48:58.156Z,1.00
2023-02-21T06:51:47.541Z,99.90
2023-02-21T06:54:38.877Z,99.90
2023-02-21T06:57:28.432Z,99.90
2023-02-21T07:00:19.054Z,99.90
2023-02-21T07:03:08.624Z,99.90
2023-02-21T07:05:58.073Z,99.90
2023-02-21T07:08:47.697Z,99.90
2023-02-21T07:11:38.627Z,22.70
2023-02-21T07:14:28.397Z,1.00
2023-02-21T07:17:17.853Z,23.00
2023-02-21T07:20:08.092Z,1.00
2023-02-21T07:22:57.754Z,1.00
2023-02-21T07:25:47.172Z,1.00
2023-02-21T07:28:38.491Z,1.00
2023-02-21T07:31:28.068Z,1.00
2023-02-21T07:34:17.782Z,99.90
2023-02-21T07:37:07.210Z,1.00
2023-02-21T07:39:57.025Z,1.00
2023-02-21T07:42:48.235Z,1.00
2023-02-21T07:45:39.512Z,1.00
2023-02-21T07:48:30.178Z,1.00
2023-02-21T07:51:19.913Z,1.00
2023-02-21T07:54:09.358Z,1.00
2023-02-21T07:56:59.055Z,99.90
2023-02-21T07:59:50.203Z,99.90
2023-02-21T08:02:41.078Z,99.90
2023-02-21T08:05:30.592Z,99.90
2023-02-21T08:08:20.092Z,99.90
2023-02-21T08:11:09.719Z,99.90
2023-02-21T08:13:59.176Z,1.00
2023-02-21T08:16:48.654Z,99.90
2023-02-21T08:19:39.724Z,99.90
2023-02-21T08:22:29.241Z,99.90
2023-02-21T08:25:18.914Z,99.90
2023-02-21T08:28:08.532Z,99.90
2023-02-21T08:30:58.282Z,99.90
2023-02-21T08:33:48.141Z,99.90
2023-02-21T08:36:41.516Z,99.90
2023-02-21T08:39:32.273Z,99.90
2023-02-21T08:42:22.469Z,99.90
2023-02-21T08:45:18.262Z,99.90
2023-02-21T08:48:08.052Z,1.00
2023-02-21T08:50:57.633Z,1.00
2023-02-21T08:53:48.654Z,1.00
2023-02-21T08:56:38.070Z,1.00
2023-02-21T08:59:29.126Z,1.00
2023-02-21T09:02:20.570Z,29.10
2023-02-21T09:05:11.402Z,1.00
2023-02-21T09:08:03.942Z,1.00
2023-02-21T09:10:56.320Z,99.90
2023-02-21T09:13:46.173Z,99.90
2023-02-21T09:16:35.566Z,99.90
2023-02-21T09:19:25.312Z,99.90
2023-02-21T09:22:14.825Z,99.90
2023-02-21T09:25:05.044Z,99.90
2023-02-21T09:27:55.961Z,99.90
2023-02-21T09:30:45.866Z,99.90
2023-02-21T09:33:35.368Z,99.90
2023-02-21T09:36:25.167Z,99.90
2023-02-21T09:39:15.362Z,99.90
2023-02-21T09:42:04.771Z,99.90
2023-02-21T09:44:55.832Z,99.90
2023-02-21T09:47:47.113Z,99.90
2023-02-21T09:50:44.195Z,99.90
2023-02-21T09:53:35.890Z,99.90
2023-02-21T09:56:31.372Z,99.90
2023-02-21T09:59:20.843Z,91.60
2023-02-21T10:02:40.849Z,36.70
2023-02-21T10:05:41.061Z,80.70
2023-02-21T10:08:41.611Z,52.80
2023-02-21T10:11:43.066Z,14.50
2023-02-21T10:14:45.269Z,14.50
2023-02-21T10:17:39.887Z,14.10
2023-02-21T10:20:39.816Z,14.60
2023-02-21T10:23:35.680Z,1.00
2023-02-21T10:26:29.673Z,1.00
2023-02-21T10:29:25.337Z,1.00
2023-02-21T10:32:15.709Z,1.00
2023-02-21T10:35:07.606Z,1.00
2023-02-21T10:38:00.576Z,1.00
2023-02-21T10:40:54.453Z,1.00
2023-02-21T10:43:48.871Z,1.00
2023-02-21T10:46:45.886Z,1.00
2023-02-21T10:49:42.559Z,1.00
2023-02-21T10:52:39.420Z,1.00
2023-02-21T10:55:33.138Z,1.00
2023-02-21T10:58:28.705Z,1.00
2023-02-21T11:01:22.317Z,1.00
2023-02-21T11:04:27.961Z,1.00
2023-02-21T11:07:17.587Z,1.00
2023-02-21T11:10:29.492Z,1.00
2023-02-21T11:13:23.232Z,1.00
2023-02-21T11:16:17.580Z,1.00
2023-02-21T11:19:09.183Z,1.00
2023-02-21T11:22:00.736Z,1.00
2023-02-21T11:25:00.473Z,1.00
2023-02-21T11:28:04.828Z,1.00
2023-02-21T11:31:08.965Z,1.00
2023-02-21T11:34:00.749Z,1.00
2023-02-21T11:36:51.194Z,1.00
2023-02-21T11:39:41.882Z,1.00
2023-02-21T11:42:34.634Z,1.00
2023-02-21T11:45:31.610Z,1.00
2023-02-21T11:48:30.192Z,1.00
2023-02-21T11:51:32.763Z,1.00
2023-02-21T11:54:26.033Z,1.00
2023-02-21T11:57:23.078Z,1.00
2023-02-21T12:00:23.699Z,1.00
2023-02-21T12:03:46.453Z,1.00
2023-02-21T12:06:44.040Z,1.00
2023-02-21T12:09:41.743Z,1.00
2023-02-21T12:12:40.930Z,1.00
2023-02-21T12:15:39.709Z,1.00
2023-02-21T12:18:48.763Z,1.00
2023-02-21T12:22:01.301Z,1.00
2023-02-21T12:25:02.980Z,1.00
2023-02-21T12:27:58.173Z,1.00
2023-02-21T12:31:05.771Z,1.00
2023-02-21T12:34:08.338Z,1.00
2023-02-21T12:37:15.654Z,1.00
2023-02-21T12:40:17.486Z,1.00
2023-02-21T12:43:45.747Z,1.00
2023-02-21T12:46:40.637Z,1.00
2023-02-21T12:49:37.989Z,1.00
2023-02-21T12:52:30.697Z,1.00
2023-02-21T12:55:23.891Z,1.00
2023-02-21T12:58:21.692Z,1.00
2023-02-21T13:01:20.803Z,1.00
2023-02-21T13:04:29.944Z,1.00
2023-02-21T13:07:26.809Z,1.00
2023-02-21T13:10:22.007Z,1.00
2023-02-21T13:13:16.766Z,1.00
2023-02-21T13:16:11.004Z,1.00
2023-02-21T13:19:04.842Z,1.00
2023-02-21T13:22:11.642Z,1.00
2023-02-21T13:25:12.404Z,1.00
2023-02-21T13:28:07.897Z,1.00
2023-02-21T13:31:03.174Z,1.00
2023-02-21T13:33:54.795Z,1.00
2023-02-21T13:36:46.814Z,1.00
2023-02-21T13:39:38.302Z,1.00
2023-02-21T13:42:31.802Z,1.00
2023-02-21T13:45:24.494Z,1.00
2023-02-21T13:48:23.308Z,1.00
2023-02-21T13:51:48.803Z,1.00
2023-02-21T13:54:58.282Z,1.00
2023-02-21T13:57:51.396Z,1.00
2023-02-21T14:00:56.559Z,1.00
2023-02-21T14:03:46.787Z,1.00
2023-02-21T14:06:38.506Z,1.00
2023-02-21T14:09:28.639Z,1.00
2023-02-21T14:12:18.643Z,1.00
2023-02-21T14:15:10.988Z,1.00
2023-02-21T14:18:02.855Z,1.00
2023-02-21T14:20:55.813Z,1.00
2023-02-21T14:23:51.167Z,1.00
2023-02-21T14:26:44.544Z,1.00
2023-02-21T14:29:37.330Z,1.00
2023-02-21T14:32:36.874Z,1.00
2023-02-21T14:35:33.586Z,1.00
2023-02-21T14:38:25.707Z,1.00
2023-02-21T14:41:39.405Z,1.00
2023-02-21T14:44:36.355Z,1.00
2023-02-21T14:47:50.455Z,1.00
2023-02-21T14:50:52.014Z,1.00
2023-02-21T14:54:08.497Z,1.00
2023-02-21T14:57:12.262Z,1.00
2023-02-21T15:00:15.542Z,1.00
2023-02-21T15:03:14.349Z,1.00
2023-02-21T15:06:08.413Z,1.00
2023-02-21T15:08:58.027Z,1.00
2023-02-21T15:11:49.169Z,1.00
2023-02-21T15:14:42.320Z,1.00
2023-02-21T15:17:32.097Z,1.00
2023-02-21T15:20:23.377Z,1.00
2023-02-21T15:23:19.549Z,1.00
2023-02-21T15:26:22.528Z,1.00
2023-02-21T15:29:14.798Z,1.00
2023-02-21T15:32:05.270Z,1.00
2023-02-21T15:34:56.079Z,1.00
2023-02-21T15:37:48.749Z,1.00
2023-02-21T15:40:38.828Z,1.00
2023-02-21T15:43:35.450Z,1.00
2023-02-21T15:46:26.934Z,1.00
2023-02-21T15:49:21.856Z,1.00
2023-02-21T15:52:29.600Z,1.00
2023-02-21T15:55:31.935Z,1.00
2023-02-21T15:58:24.814Z,1.00
2023-02-21T16:01:14.692Z,1.00
2023-02-21T16:04:20.747Z,1.00
2023-02-21T16:07:19.861Z,1.00
2023-02-21T16:10:13.195Z,1.00
2023-02-21T16:13:04.703Z,1.00
2023-02-21T16:16:00.945Z,1.00
2023-02-21T16:18:59.255Z,1.00
2023-02-21T16:21:50.228Z,1.00
2023-02-21T16:24:42.196Z,1.00
2023-02-21T16:27:32.601Z,1.00
2023-02-21T16:30:26.517Z,1.00
2023-02-21T16:33:16.348Z,1.00
2023-02-21T16:36:10.225Z,1.00
2023-02-21T16:39:01.993Z,1.00
2023-02-21T16:41:53.660Z,1.00
2023-02-21T16:44:46.478Z,1.00
2023-02-21T16:47:37.712Z,1.00
2023-02-21T16:50:31.884Z,1.00
2023-02-21T16:53:24.118Z,1.00
2023-02-21T16:56:16.380Z,1.00
2023-02-21T16:59:08.116Z,1.00
2023-02-21T17:01:58.030Z,1.00
2023-02-21T17:04:50.201Z,1.00
2023-02-21T17:07:40.336Z,1.00
2023-02-21T17:15:28.395Z,1.00
2023-02-21T17:18:21.322Z,1.00
2023-02-21T17:21:16.185Z,1.00
2023-02-21T17:24:06.540Z,1.00
2023-02-21T17:26:57.447Z,1.00
2023-02-21T17:30:24.567Z,1.00
2023-02-21T17:33:15.877Z,1.00
2023-02-21T17:36:07.282Z,1.00
2023-02-21T17:39:00.010Z,1.00
2023-02-21T17:41:53.383Z,1.00
2023-02-21T17:44:48.193Z,1.00
2023-02-21T17:47:39.730Z,1.00
2023-02-21T17:50:30.536Z,1.00
2023-02-21T17:53:23.414Z,1.00
2023-02-21T17:56:25.129Z,1.00
2023-02-21T17:59:18.243Z,1.00
2023-02-21T18:02:10.966Z,1.00
2023-02-21T18:05:04.561Z,1.00
2023-02-21T18:07:57.564Z,1.00
2023-02-21T18:10:48.566Z,1.00
2023-02-21T18:13:41.151Z,1.00
2023-02-21T18:16:32.500Z,1.00
2023-02-21T18:19:38.639Z,1.00
2023-02-21T18:22:30.185Z,1.00
2023-02-21T18:25:25.043Z,1.00
2023-02-21T18:28:16.470Z,1.00
2023-02-21T18:31:11.147Z,1.00
2023-02-21T18:34:03.171Z,1.00
2023-02-21T18:36:58.434Z,1.00
2023-02-21T18:39:53.686Z,1.00
2023-02-21T18:42:49.260Z,1.00
2023-02-21T18:45:41.767Z,1.00
2023-02-21T18:48:34.678Z,1.00
2023-02-21T18:51:27.424Z,1.00
2023-02-21T18:54:21.629Z,1.00
2023-02-21T18:57:17.982Z,1.00
2023-02-21T19:00:17.279Z,1.00
2023-02-21T19:03:14.634Z,1.00
2023-02-21T19:06:22.514Z,1.00
2023-02-21T19:09:14.556Z,1.00
2023-02-21T19:12:18.462Z,1.00
2023-02-21T19:15:14.691Z,1.00
2023-02-21T19:18:13.985Z,1.00
2023-02-21T19:21:14.586Z,1.00
2023-02-21T19:24:13.078Z,1.00
2023-02-21T19:27:16.035Z,1.00
2023-02-21T19:30:10.648Z,1.00
2023-02-21T19:33:05.932Z,1.00
2023-02-21T19:36:17.335Z,1.00
2023-02-21T19:39:22.468Z,1.00
2023-02-21T19:42:19.038Z,1.00
2023-02-21T19:45:15.837Z,1.00
2023-02-21T19:48:08.460Z,1.00
2023-02-21T19:50:59.999Z,1.00
2023-02-21T19:53:50.836Z,1.00
2023-02-21T19:56:46.509Z,1.00
2023-02-21T19:59:38.814Z,1.00
2023-02-21T20:02:32.961Z,1.00
2023-02-21T20:05:25.250Z,1.00
2023-02-21T20:08:19.747Z,1.00
2023-02-21T20:11:12.066Z,1.00
2023-02-21T20:14:06.977Z,1.00
2023-02-21T20:16:58.527Z,1.00
2023-02-21T20:19:54.019Z,1.00
2023-02-21T20:22:45.369Z,1.00
2023-02-21T20:25:37.115Z,1.00
2023-02-21T20:28:34.261Z,1.00
2023-02-21T20:31:32.444Z,1.00
2023-02-21T20:34:25.486Z,1.00
2023-02-21T20:37:20.517Z,1.00
2023-02-21T20:40:13.476Z,1.00
2023-02-21T20:43:05.902Z,1.00
2023-02-21T20:45:57.207Z,1.00
2023-02-21T20:48:50.385Z,1.00
2023-02-21T20:51:42.248Z,1.00
2023-02-21T20:54:34.118Z,1.00
2023-02-21T20:57:26.615Z,1.00
2023-02-21T21:00:24.450Z,1.00
2023-02-21T21:03:17.045Z,1.00
2023-02-21T21:06:13.434Z,1.00
2023-02-21T21:09:05.213Z,1.00
2023-02-21T21:12:01.408Z,1.00
2023-02-21T21:14:55.113Z,1.00
2023-02-21T21:17:51.654Z,1.00
2023-02-21T21:20:43.135Z,1.00
2023-02-21T21:23:35.900Z,1.00
2023-02-21T21:26:28.509Z,1.00
2023-02-21T21:29:20.862Z,1.00
2023-02-21T21:32:12.297Z,1.00
2023-02-21T21:35:08.261Z,1.00
2023-02-21T21:37:59.875Z,1.00
2023-02-21T21:40:53.721Z,1.00
2023-02-21T21:43:46.311Z,1.00
2023-02-21T21:46:38.330Z,1.00
2023-02-21T21:49:31.094Z,1.00
2023-02-21T21:52:22.984Z,1.00
2023-02-21T21:55:23.992Z,1.00
2023-02-21T21:58:25.676Z,1.00
2023-02-21T22:01:22.430Z,1.00
2023-02-21T22:04:14.087Z,1.00
2023-02-21T22:07:04.021Z,1.00
2023-02-21T22:09:53.928Z,1.00
2023-02-21T22:12:46.446Z,1.00
2023-02-21T22:15:38.076Z,1.00
2023-02-21T22:18:28.020Z,1.00
2023-02-21T22:21:22.739Z,1.00
2023-02-21T22:24:15.832Z,1.00
2023-02-21T22:27:06.577Z,1.00
2023-02-21T22:29:58.964Z,1.00
2023-02-21T22:32:50.793Z,1.00
2023-02-21T22:35:40.928Z,1.00
2023-02-21T22:38:30.282Z,1.00
2023-02-21T22:41:21.932Z,1.00
2023-02-21T22:44:13.269Z,1.00
2023-02-21T22:47:03.417Z,1.00
2023-02-21T22:49:54.355Z,1.00
2023-02-21T22:52:43.858Z,1.00
2023-02-21T22:55:36.412Z,1.00
2023-02-21T22:58:26.052Z,1.00
2023-02-21T23:01:17.864Z,1.00
2023-02-21T23:04:16.604Z,1.00
2023-02-21T23:07:07.894Z,1.00
2023-02-21T23:09:58.562Z,1.00
2023-02-21T23:12:48.824Z,1.00
2023-02-21T23:15:38.628Z,1.00
2023-02-21T23:18:29.982Z,1.00
2023-02-21T23:21:23.613Z,1.00
2023-02-21T23:24:16.088Z,1.00
2023-02-21T23:27:09.230Z,1.00
2023-02-21T23:30:00.778Z,1.00
2023-02-21T23:32:50.807Z,1.00
2023-02-21T23:35:41.901Z,1.00
2023-02-21T23:38:31.547Z,1.00
2023-02-21T23:41:22.651Z,1.00
2023-02-21T23:44:14.357Z,1.00
2023-02-21T23:47:06.724Z,1.00
2023-02-21T23:49:58.772Z,1.00
2023-02-21T23:52:49.877Z,1.00
2023-02-21T23:55:41.030Z,1.00
2023-02-21T23:58:33.818Z,1.00
